Terminal Aerodrome Forecast
Issued by NWS

Home | Current Version | Previous Version | Text Only | Print | Product List | Glossary On
Versions: 1 2 3 4 5 6 7 8 9 10 11 12 13 14 15 16 17 18 19 20
238
FTUS46 KMFR 202340
TAFLMT
TAF
KLMT 202340Z 2100/2124 15008KT P6SM VCSH SCT030 OVC060
     FM210600 16007KT P6SM OVC050
     FM211300 17014G20KT 5SM -SN FEW020 OVC035
     FM211700 21014G23KT 2SM -SN BKN025 OVC040=

USA.gov is the U.S. government's official web portal to all federal, state and local government web resources and services.